createdAt,value
2019-04-05T00:00:48.795Z,99.90
2019-04-05T00:04:12.778Z,99.90
2019-04-05T00:07:36.537Z,99.90
2019-04-05T00:11:00.887Z,99.90
2019-04-05T00:14:24.641Z,99.90
2019-04-05T00:17:48.516Z,99.90
2019-04-05T00:21:12.353Z,99.90
2019-04-05T00:24:36.154Z,99.90
2019-04-05T00:28:00.153Z,99.90
2019-04-05T00:31:23.968Z,99.90
2019-04-05T00:34:47.779Z,99.90
2019-04-05T00:38:11.672Z,99.90
2019-04-05T00:41:35.846Z,99.90
2019-04-05T00:44:59.766Z,99.90
2019-04-05T00:48:23.646Z,99.90
2019-04-05T00:51:47.370Z,99.90
2019-04-05T00:55:11.273Z,99.90
2019-04-05T00:58:35.149Z,99.90
2019-04-05T01:01:59.012Z,99.90
2019-04-05T01:05:22.804Z,99.90
2019-04-05T01:08:46.781Z,99.90
2019-04-05T01:12:10.846Z,99.90
2019-04-05T01:15:40.837Z,99.90
2019-04-05T01:19:00.316Z,99.90
2019-04-05T01:22:27.071Z,99.90
2019-04-05T01:25:54.026Z,99.90
2019-04-05T01:29:18.587Z,99.90
2019-04-05T01:32:42.387Z,99.60
2019-04-05T01:36:06.250Z,98.60
2019-04-05T01:39:30.214Z,97.60
2019-04-05T01:42:54.076Z,98.90
2019-04-05T01:46:18.429Z,99.90
2019-04-05T01:49:42.372Z,99.90
2019-04-05T01:53:06.186Z,99.90
2019-04-05T01:56:30.137Z,99.90
2019-04-05T01:59:54.561Z,99.90
2019-04-05T02:03:18.480Z,99.90
2019-04-05T02:06:43.076Z,98.90
2019-04-05T02:10:10.595Z,96.40
2019-04-05T02:13:34.355Z,96.70
2019-04-05T02:16:58.091Z,96.90
2019-04-05T02:20:22.960Z,97.00
2019-04-05T02:23:46.847Z,97.30
2019-04-05T02:27:10.594Z,98.20
2019-04-05T02:30:34.517Z,99.10
2019-04-05T02:33:58.292Z,99.70
2019-04-05T02:37:22.099Z,99.50
2019-04-05T02:40:46.967Z,99.90
2019-04-05T02:44:13.120Z,99.80
2019-04-05T02:47:39.255Z,99.90
2019-04-05T02:51:04.445Z,99.90
2019-04-05T02:54:28.988Z,99.90
2019-04-05T02:57:53.652Z,99.90
2019-04-05T03:01:17.932Z,99.90
2019-04-05T03:04:41.844Z,99.90
2019-04-05T03:08:06.832Z,99.90
2019-04-05T03:11:33.230Z,99.90
2019-04-05T03:14:58.070Z,99.90
2019-04-05T03:18:24.766Z,99.90
2019-04-05T03:21:51.849Z,99.90
2019-04-05T03:25:15.841Z,99.90
2019-04-05T03:28:41.896Z,99.90
2019-04-05T03:32:06.802Z,99.90
2019-04-05T03:35:30.874Z,99.90
2019-04-05T03:38:54.826Z,99.90
2019-04-05T03:42:18.953Z,99.90
2019-04-05T03:45:43.334Z,99.90
2019-04-05T03:49:07.222Z,99.90
2019-04-05T03:52:31.204Z,98.40
2019-04-05T03:55:55.806Z,97.90
2019-04-05T03:59:19.800Z,97.30
2019-04-05T04:02:43.741Z,98.40
2019-04-05T04:06:07.912Z,98.70
2019-04-05T04:09:31.940Z,99.60
2019-04-05T04:12:56.003Z,99.90
2019-04-05T04:16:20.004Z,99.90
2019-04-05T04:19:44.890Z,99.90
2019-04-05T04:23:10.092Z,99.90
2019-04-05T04:26:34.187Z,99.90
2019-04-05T04:30:00.321Z,99.90
2019-04-05T04:33:24.845Z,99.90
2019-04-05T04:36:48.779Z,99.90
2019-04-05T04:40:13.013Z,99.90
2019-04-05T04:43:37.059Z,99.90
2019-04-05T04:47:01.350Z,99.90
2019-04-05T04:50:25.544Z,99.90
2019-04-05T04:53:49.513Z,99.90
2019-04-05T04:57:13.728Z,99.90
2019-04-05T05:00:38.040Z,99.90
2019-04-05T05:04:02.296Z,99.90
2019-04-05T05:07:26.441Z,99.90
2019-04-05T05:10:50.992Z,99.90
2019-04-05T05:14:15.084Z,99.90
2019-04-05T05:17:39.198Z,99.90
2019-04-05T05:21:03.232Z,99.90
2019-04-05T05:24:27.018Z,98.20
2019-04-05T05:27:51.084Z,97.90
2019-04-05T05:31:15.268Z,93.90
2019-04-05T05:34:39.229Z,91.30
2019-04-05T05:38:03.824Z,86.00
2019-04-05T05:41:33.777Z,76.20
2019-04-05T05:44:57.569Z,66.80
2019-04-05T05:48:21.786Z,62.80
2019-04-05T05:51:47.098Z,59.70
2019-04-05T05:55:12.687Z,56.80
2019-04-05T05:58:36.625Z,53.20
2019-04-05T06:02:08.550Z,57.70
2019-04-05T06:05:44.031Z,65.60
2019-04-05T06:09:10.159Z,69.30
2019-04-05T06:12:33.956Z,73.90
2019-04-05T06:15:57.803Z,68.70
2019-04-05T06:19:21.705Z,56.10
2019-04-05T06:22:47.613Z,53.10
2019-04-05T06:26:10.954Z,50.30
2019-04-05T06:29:34.856Z,49.40
2019-04-05T06:32:58.748Z,48.20
2019-04-05T06:36:22.708Z,45.80
2019-04-05T06:39:46.576Z,46.20
2019-04-05T06:43:10.402Z,45.00
2019-04-05T06:46:34.246Z,45.70
2019-04-05T06:49:58.239Z,46.50
2019-04-05T06:53:22.150Z,45.00
2019-04-05T06:56:46.143Z,43.90
2019-04-05T07:00:10.317Z,42.50
2019-04-05T07:03:34.243Z,43.00
2019-04-05T07:06:58.025Z,42.50
2019-04-05T07:10:21.858Z,44.30
2019-04-05T07:13:45.699Z,42.90
2019-04-05T07:17:09.566Z,43.90
2019-04-05T07:20:33.359Z,42.40
2019-04-05T07:23:57.176Z,42.70
2019-04-05T07:27:20.932Z,42.70
2019-04-05T07:30:44.811Z,42.00
2019-04-05T07:34:08.669Z,40.50
2019-04-05T07:37:32.701Z,38.70
2019-04-05T07:40:56.445Z,36.70
2019-04-05T07:44:20.431Z,39.20
2019-04-05T07:47:44.308Z,41.30
2019-04-05T07:51:08.083Z,40.30
2019-04-05T07:54:32.113Z,39.80
2019-04-05T07:57:56.089Z,39.90
2019-04-05T08:01:20.043Z,38.30
2019-04-05T08:04:43.936Z,37.40
2019-04-05T08:08:10.699Z,36.00
2019-04-05T08:11:35.220Z,35.80
2019-04-05T08:14:59.151Z,35.80
2019-04-05T08:18:23.012Z,37.10
2019-04-05T08:21:46.823Z,39.20
2019-04-05T08:25:10.730Z,36.20
2019-04-05T08:28:34.523Z,35.80
2019-04-05T08:31:58.361Z,37.70
2019-04-05T08:35:22.165Z,38.40
2019-04-05T08:38:45.917Z,39.10
2019-04-05T08:42:10.941Z,38.70
2019-04-05T08:45:35.234Z,35.70
2019-04-05T08:49:09.965Z,36.80
2019-04-05T08:52:26.936Z,37.20
2019-04-05T08:55:50.157Z,38.00
2019-04-05T08:59:13.906Z,38.70
2019-04-05T09:02:39.794Z,36.50
2019-04-05T09:06:03.848Z,36.20
2019-04-05T09:09:27.696Z,35.60
2019-04-05T09:12:54.676Z,34.70
2019-04-05T09:16:18.488Z,34.20
2019-04-05T09:19:42.247Z,36.20
2019-04-05T09:23:06.119Z,36.50
2019-04-05T09:26:29.963Z,37.10
2019-04-05T09:29:53.773Z,38.10
2019-04-05T09:33:17.557Z,37.60
2019-04-05T09:36:41.305Z,37.90
2019-04-05T09:40:06.793Z,35.50
2019-04-05T09:43:30.591Z,34.00
2019-04-05T09:46:54.524Z,34.80
2019-04-05T09:50:19.068Z,35.00
2019-04-05T09:53:42.819Z,35.90
2019-04-05T09:57:06.732Z,36.60
2019-04-05T10:00:30.506Z,34.20
2019-04-05T10:03:54.396Z,36.20
2019-04-05T10:07:18.301Z,35.50
2019-04-05T10:10:42.161Z,36.60
2019-04-05T10:14:05.972Z,34.90
2019-04-05T10:17:30.338Z,34.80
2019-04-05T10:20:54.559Z,33.90
2019-04-05T10:24:18.269Z,33.40
2019-04-05T10:27:43.001Z,32.60
2019-04-05T10:31:06.775Z,35.10
2019-04-05T10:34:30.654Z,33.90
2019-04-05T10:37:54.437Z,33.80
2019-04-05T10:41:18.463Z,33.80
2019-04-05T10:44:42.201Z,34.00
2019-04-05T10:48:06.228Z,35.30
2019-04-05T10:51:30.076Z,33.60
2019-04-05T10:54:54.103Z,34.20
2019-04-05T10:58:17.999Z,37.50
2019-04-05T11:01:41.847Z,36.60
2019-04-05T11:05:08.468Z,36.40
2019-04-05T11:08:32.316Z,35.80
2019-04-05T11:11:56.180Z,35.90
2019-04-05T11:15:20.122Z,35.70
2019-04-05T11:18:45.205Z,34.50
2019-04-05T11:22:09.594Z,34.00
2019-04-05T11:25:33.454Z,34.10
2019-04-05T11:28:57.674Z,33.80
2019-04-05T11:32:21.650Z,35.20
2019-04-05T11:35:45.461Z,37.20
2019-04-05T11:39:10.032Z,37.10
2019-04-05T11:42:35.517Z,37.10
2019-04-05T11:46:00.188Z,37.30
2019-04-05T11:49:24.718Z,37.90
2019-04-05T11:52:48.674Z,37.70
2019-04-05T11:56:14.782Z,36.40
2019-04-05T11:59:38.024Z,37.20
2019-04-05T12:03:06.006Z,38.20
2019-04-05T12:06:29.813Z,37.60
2019-04-05T12:09:53.711Z,35.60
2019-04-05T12:13:17.504Z,37.80
2019-04-05T12:16:41.340Z,37.50
2019-04-05T12:20:07.468Z,38.40
2019-04-05T12:23:33.402Z,38.20
2019-04-05T12:26:59.918Z,36.40
2019-04-05T12:30:25.515Z,37.50
2019-04-05T12:33:51.586Z,38.40
2019-04-05T12:37:14.828Z,37.80
2019-04-05T12:40:40.773Z,38.30
2019-04-05T12:44:04.187Z,38.00
2019-04-05T12:47:28.014Z,38.30
2019-04-05T12:51:01.083Z,42.40
2019-04-05T12:54:17.469Z,40.60
2019-04-05T12:57:41.300Z,41.60
2019-04-05T13:01:08.203Z,40.40
2019-04-05T13:04:31.145Z,41.90
2019-04-05T13:07:55.027Z,43.80
2019-04-05T13:11:19.037Z,42.70
2019-04-05T13:14:42.913Z,43.00
2019-04-05T13:18:06.784Z,43.60
2019-04-05T13:21:32.952Z,41.30
2019-04-05T13:24:56.590Z,40.60
2019-04-05T13:28:20.352Z,42.30
2019-04-05T13:31:48.612Z,42.30
2019-04-05T13:35:12.494Z,40.90
2019-04-05T13:38:36.621Z,40.30
2019-04-05T13:42:02.472Z,40.20
2019-04-05T13:45:26.656Z,41.70
2019-04-05T13:48:50.487Z,42.90
2019-04-05T13:52:14.359Z,42.20
2019-04-05T13:55:38.542Z,41.90
2019-04-05T13:59:04.624Z,41.90
2019-04-05T14:02:28.409Z,42.00
2019-04-05T14:05:53.997Z,41.40
2019-04-05T14:09:17.855Z,39.90
2019-04-05T14:12:41.623Z,41.00
2019-04-05T14:16:06.277Z,42.50
2019-04-05T14:19:30.258Z,43.10
2019-04-05T14:22:58.114Z,41.90
2019-04-05T14:26:20.934Z,42.70
2019-04-05T14:29:47.543Z,41.70
2019-04-05T14:33:10.477Z,42.50
2019-04-05T14:36:34.294Z,42.80
2019-04-05T14:39:58.319Z,43.80
2019-04-05T14:43:22.284Z,41.70
2019-04-05T14:46:46.326Z,43.10
2019-04-05T14:50:11.966Z,43.80
2019-04-05T14:53:36.031Z,43.20
2019-04-05T14:57:04.769Z,44.20
2019-04-05T15:00:25.491Z,44.10
2019-04-05T15:03:50.121Z,44.20
2019-04-05T15:07:21.711Z,43.70
2019-04-05T15:10:45.480Z,42.40
2019-04-05T15:14:09.254Z,43.90
2019-04-05T15:17:47.231Z,45.20
2019-04-05T15:21:05.458Z,45.40
2019-04-05T15:24:27.123Z,43.90
2019-04-05T15:27:55.154Z,44.70
2019-04-05T15:31:16.503Z,44.90
2019-04-05T15:34:40.427Z,45.10
2019-04-05T15:38:04.518Z,45.50
2019-04-05T15:41:28.464Z,45.70
2019-04-05T15:44:52.344Z,45.70
2019-04-05T15:48:16.359Z,46.70
2019-04-05T15:51:40.499Z,47.90
2019-04-05T15:55:06.324Z,48.40
2019-04-05T15:58:31.600Z,48.60
2019-04-05T16:01:55.668Z,48.90
2019-04-05T16:05:21.166Z,49.00
2019-04-05T16:08:46.074Z,48.60
2019-04-05T16:12:10.093Z,47.90
2019-04-05T16:15:34.701Z,47.60
2019-04-05T16:18:59.264Z,46.40
2019-04-05T16:22:31.111Z,45.80
2019-04-05T16:25:49.058Z,46.30
2019-04-05T16:29:13.066Z,47.10
2019-04-05T16:32:37.452Z,47.70
2019-04-05T16:36:01.444Z,49.00
2019-04-05T16:39:25.447Z,50.50
2019-04-05T16:43:01.657Z,51.10
2019-04-05T16:46:15.385Z,51.60
2019-04-05T16:49:44.698Z,52.00
2019-04-05T16:53:11.912Z,52.30
2019-04-05T16:56:35.966Z,52.40
2019-04-05T17:00:00.594Z,52.80
2019-04-05T17:03:24.962Z,53.10
2019-04-05T17:06:48.853Z,53.50
2019-04-05T17:10:12.666Z,54.10
2019-04-05T17:13:36.562Z,54.70
2019-04-05T17:17:00.392Z,55.10
2019-04-05T17:20:24.276Z,55.60
2019-04-05T17:23:48.121Z,56.50
2019-04-05T17:27:12.053Z,56.80
2019-04-05T17:30:36.491Z,57.20
2019-04-05T17:34:00.529Z,57.30
2019-04-05T17:37:26.636Z,57.50
2019-04-05T17:40:49.993Z,57.90
2019-04-05T17:44:15.312Z,57.90
2019-04-05T17:47:39.178Z,58.90
2019-04-05T17:51:03.081Z,59.60
2019-04-05T17:54:28.016Z,60.70
2019-04-05T17:57:54.252Z,62.40
2019-04-05T18:01:18.313Z,64.20
2019-04-05T18:04:42.335Z,67.00
2019-04-05T18:08:08.105Z,69.20
2019-04-05T18:11:32.003Z,72.30
2019-04-05T18:14:55.814Z,73.30
2019-04-05T18:18:19.742Z,75.70
2019-04-05T18:21:43.554Z,75.70
2019-04-05T18:25:07.589Z,78.10
2019-04-05T18:28:32.211Z,78.00
2019-04-05T18:31:56.273Z,79.40
2019-04-05T18:35:20.152Z,80.50
2019-04-05T18:38:43.979Z,81.10
2019-04-05T18:42:07.966Z,81.50
2019-04-05T18:45:33.630Z,82.60
2019-04-05T18:48:57.919Z,82.70
2019-04-05T18:52:21.709Z,83.40
2019-04-05T18:55:45.586Z,83.20
2019-04-05T18:59:09.594Z,83.90
2019-04-05T19:02:33.495Z,84.30
2019-04-05T19:05:58.299Z,85.60
2019-04-05T19:09:22.827Z,85.90
2019-04-05T19:12:46.771Z,86.00
2019-04-05T19:16:11.263Z,84.50
2019-04-05T19:19:35.386Z,85.10
2019-04-05T19:22:59.227Z,85.70
2019-04-05T19:26:23.351Z,87.10
2019-04-05T19:29:47.236Z,86.50
2019-04-05T19:50:20.549Z,85.40
2019-04-05T19:53:44.521Z,85.80
2019-04-05T19:57:08.415Z,84.90
2019-04-05T20:00:32.301Z,81.50
2019-04-05T20:03:56.275Z,84.90
2019-04-05T20:07:23.104Z,83.50
2019-04-05T20:10:47.154Z,83.90
2019-04-05T20:14:11.057Z,84.80
2019-04-05T20:17:34.988Z,84.30
2019-04-05T20:20:58.718Z,86.60
2019-04-05T20:24:22.587Z,86.90
2019-04-05T20:27:46.929Z,86.70
2019-04-05T20:31:10.815Z,87.80
2019-04-05T20:34:35.616Z,89.00
2019-04-05T20:37:59.513Z,88.90
2019-04-05T20:41:23.248Z,90.10
2019-04-05T20:44:46.999Z,90.30
2019-04-05T20:48:10.804Z,89.50
2019-04-05T20:51:34.584Z,88.50
2019-04-05T20:54:58.473Z,84.60
2019-04-05T20:58:22.472Z,85.00
2019-04-05T21:01:46.334Z,85.00
2019-04-05T21:05:10.276Z,86.30
2019-04-05T21:08:34.079Z,86.90
2019-04-05T21:11:58.160Z,87.30
2019-04-05T21:15:22.091Z,84.50
2019-04-05T21:18:46.033Z,86.60
2019-04-05T21:22:09.904Z,88.40
2019-04-05T21:25:33.828Z,85.60
2019-04-05T21:28:57.928Z,85.80
2019-04-05T21:32:21.661Z,85.20
2019-04-05T21:35:46.221Z,85.50
2019-04-05T21:39:10.556Z,84.60
2019-04-05T21:42:34.311Z,87.40
2019-04-05T21:45:58.424Z,87.80
2019-04-05T21:49:22.296Z,87.50
2019-04-05T21:52:47.013Z,89.20
2019-04-05T21:56:10.906Z,88.50
2019-04-05T21:59:34.673Z,87.50
2019-04-05T22:02:58.797Z,88.70
2019-04-05T22:06:22.724Z,88.20
2019-04-05T22:09:46.919Z,88.80
2019-04-05T22:13:10.730Z,90.60
2019-04-05T22:16:34.554Z,91.10
2019-04-05T22:19:58.485Z,91.50
2019-04-05T22:23:22.340Z,92.20
2019-04-05T22:26:46.084Z,92.00
2019-04-05T22:30:10.903Z,91.80
2019-04-05T22:33:35.714Z,92.70
2019-04-05T22:37:00.438Z,92.60
2019-04-05T22:40:24.466Z,92.70
2019-04-05T22:43:48.267Z,93.10
2019-04-05T22:47:11.969Z,93.30
2019-04-05T22:50:36.999Z,92.40
2019-04-05T22:54:00.808Z,93.50
2019-04-05T22:57:24.724Z,93.50
2019-04-05T23:00:48.548Z,94.00
2019-04-05T23:04:12.351Z,93.90
2019-04-05T23:07:36.155Z,94.80
2019-04-05T23:10:59.911Z,96.20
2019-04-05T23:14:23.823Z,96.80
2019-04-05T23:17:47.714Z,96.70
2019-04-05T23:21:11.724Z,97.20
2019-04-05T23:24:35.783Z,96.40
2019-04-05T23:27:59.783Z,96.40
2019-04-05T23:31:23.797Z,97.20
2019-04-05T23:34:47.744Z,98.30
2019-04-05T23:38:11.511Z,98.20
2019-04-05T23:41:35.375Z,97.70
2019-04-05T23:44:59.360Z,97.60
2019-04-05T23:48:23.049Z,97.90
2019-04-05T23:51:46.911Z,98.60
2019-04-05T23:55:10.839Z,98.00
2019-04-05T23:58:43.844Z,97.90
